Time;durP1;ratioP1;P1;durP2;ratioP2;P2;SDS_P1;SDS_P2;PMS_P1;PMS_P2;Temp;Humidity;BMP_temperature;BMP_pressure;BME280_temperature;BME280_humidity;BME280_pressure;Samples;Min_cycle;Max_cycle;Signal;HPM_P1;HPM_P2
2021/12/12 00:00:29;;;;;;;;;;;4.30;96.40;;;;;;5004859;28;20013;-73
2021/12/12 00:02:59;;;;;;;;;;;4.30;96.40;;;;;;5005846;28;19925;-73
2021/12/12 00:05:29;;;;;;;;;;;4.30;96.40;;;;;;5003899;28;20452;-73
2021/12/12 00:07:56;;;;;;;;;;;4.30;96.40;;;;;;5006144;28;19926;-73
2021/12/12 00:10:25;;;;;;;;;;;4.20;96.30;;;;;;4997442;28;20416;-73
2021/12/12 00:12:54;;;;;;;;;;;4.30;96.30;;;;;;5003288;28;20657;-73
2021/12/12 00:15:21;;;;;;;;;;;4.20;96.30;;;;;;5003656;28;19933;-72
2021/12/12 00:17:48;;;;;;;;;;;4.20;96.30;;;;;;5005712;28;19933;-71
2021/12/12 00:20:18;;;;;;;;;;;4.20;96.30;;;;;;5005159;28;19929;-72
2021/12/12 00:22:46;;;;;;;;;;;4.20;96.30;;;;;;5005321;28;20392;-73
2021/12/12 00:25:14;;;;;;;;;;;4.20;96.30;;;;;;5004530;28;19937;-72
2021/12/12 00:27:40;;;;;;;;;;;4.20;96.30;;;;;;5006360;28;20338;-72
2021/12/12 00:30:08;;;;;;;;;;;4.20;96.30;;;;;;5004672;28;19925;-73
2021/12/12 00:32:36;;;;;;;;;;;4.20;96.30;;;;;;5005683;28;19937;-73
2021/12/12 00:35:04;;;;;;;;;;;4.10;96.20;;;;;;5007844;28;19929;-73
2021/12/12 00:37:31;;;;;;;;;;;4.10;96.20;;;;;;5006947;28;19959;-73
2021/12/12 00:40:03;;;;;;;;;;;4.10;96.10;;;;;;5005105;28;19929;-73
2021/12/12 00:42:32;;;;;;;;;;;4.10;96.10;;;;;;5004353;28;19933;-74
2021/12/12 00:45:00;;;;;;;;;;;4.10;96.10;;;;;;5004872;28;19933;-72
2021/12/12 00:47:27;;;;;;;;;;;4.10;96.10;;;;;;5004936;28;20260;-73
2021/12/12 00:49:54;;;;;;;;;;;4.10;96.10;;;;;;5006730;28;19925;-73
2021/12/12 00:52:21;;;;;;;;;;;4.10;96.00;;;;;;5004804;28;19930;-73
2021/12/12 00:54:48;;;;;;;;;;;4.10;95.90;;;;;;5000728;28;19926;-73
2021/12/12 00:57:17;;;;;;;;;;;4.10;95.90;;;;;;5006017;28;19925;-73
2021/12/12 00:59:44;;;;;;;;;;;4.10;95.90;;;;;;5004255;28;19929;-73
2021/12/12 01:02:14;;;;;;;;;;;4.10;95.90;;;;;;5003362;28;19921;-73
2021/12/12 01:04:43;;;;;;;;;;;4.10;95.90;;;;;;5005330;28;20633;-72
2021/12/12 01:07:12;;;;;;;;;;;4.10;95.90;;;;;;5006589;28;19960;-72
2021/12/12 01:09:41;;;;;;;;;;;4.10;95.90;;;;;;5004370;28;19929;-73
2021/12/12 01:12:10;;;;;;;;;;;4.10;95.90;;;;;;5002371;28;20024;-72
2021/12/12 01:14:41;;;;;;;;;;;4.10;95.90;;;;;;5006009;28;20337;-73
2021/12/12 01:17:10;;;;;;;;;;;4.10;95.90;;;;;;5005137;28;19935;-73
2021/12/12 01:19:40;;;;;;;;;;;4.10;95.90;;;;;;5007208;28;19932;-73
2021/12/12 01:22:09;;;;;;;;;;;4.00;95.90;;;;;;5005639;28;19925;-73
2021/12/12 01:24:38;;;;;;;;;;;4.00;95.90;;;;;;5004628;28;19932;-72
2021/12/12 01:27:06;;;;;;;;;;;4.00;95.90;;;;;;5006182;28;19925;-73
2021/12/12 01:29:32;;;;;;;;;;;4.00;95.90;;;;;;5004870;28;19926;-73
2021/12/12 01:32:03;;;;;;;;;;;4.00;95.90;;;;;;5002794;28;20471;-71
2021/12/12 01:34:31;;;;;;;;;;;4.00;95.90;;;;;;5005237;28;20440;-73
2021/12/12 01:37:11;;;;;;;;;;;4.00;95.90;;;;;;5006201;28;20420;-73
2021/12/12 01:39:39;;;;;;;;;;;4.00;95.90;;;;;;4998169;28;20020;-72
2021/12/12 01:42:07;;;;;;;;;;;4.00;96.00;;;;;;5003931;28;19971;-73
2021/12/12 01:44:35;;;;;;;;;;;4.00;96.00;;;;;;5005296;28;19937;-73
2021/12/12 01:47:06;;;;;;;;;;;4.00;96.00;;;;;;5002743;28;20008;-73
2021/12/12 01:49:33;;;;;;;;;;;4.00;96.00;;;;;;5004675;28;19932;-73
2021/12/12 01:52:00;;;;;;;;;;;4.00;96.00;;;;;;5004053;28;19929;-72
2021/12/12 01:54:30;;;;;;;;;;;3.90;96.00;;;;;;5003058;28;19929;-73
2021/12/12 01:56:59;;;;;;;;;;;4.00;96.10;;;;;;5003255;28;19921;-73
2021/12/12 01:59:27;;;;;;;;;;;4.00;96.10;;;;;;5003965;28;20484;-72
2021/12/12 02:01:56;;;;;;;;;;;3.90;96.00;;;;;;5000736;28;19929;-72
2021/12/12 02:04:26;;;;;;;;;;;4.00;96.10;;;;;;5004073;28;19929;-73
2021/12/12 02:06:53;;;;;;;;;;;4.00;96.10;;;;;;5004266;28;19929;-73
2021/12/12 02:09:20;;;;;;;;;;;4.00;96.10;;;;;;4998911;28;19930;-73
2021/12/12 02:11:48;;;;;;;;;;;4.00;96.10;;;;;;4998815;28;20427;-73
2021/12/12 02:14:16;;;;;;;;;;;4.00;96.10;;;;;;5004083;28;19936;-72
2021/12/12 02:16:45;;;;;;;;;;;3.90;96.10;;;;;;5004584;28;19921;-73
2021/12/12 02:19:12;;;;;;;;;;;3.90;96.10;;;;;;5003919;28;20422;-73
2021/12/12 02:21:55;;;;;;;;;;;3.90;96.00;;;;;;5006050;28;19921;-73
2021/12/12 02:35:25;;;;;;;;;;;3.90;96.10;;;;;;5006441;28;19929;-73
2021/12/12 02:37:53;;;;;;;;;;;3.90;96.10;;;;;;5007757;28;19991;-72
2021/12/12 02:40:24;;;;;;;;;;;3.90;96.10;;;;;;5007943;28;19933;-73
2021/12/12 02:42:51;;;;;;;;;;;3.90;96.10;;;;;;5003010;28;19925;-72
2021/12/12 02:45:19;;;;;;;;;;;3.90;96.00;;;;;;5008284;28;19933;-72
2021/12/12 02:47:53;;;;;;;;;;;3.90;96.00;;;;;;5008919;28;19932;-73
2021/12/12 02:50:21;;;;;;;;;;;3.90;96.10;;;;;;5007238;28;19925;-72
2021/12/12 02:52:50;;;;;;;;;;;3.90;96.00;;;;;;5007865;28;19925;-73
2021/12/12 02:55:18;;;;;;;;;;;3.90;96.10;;;;;;5005215;28;19925;-73
2021/12/12 02:57:46;;;;;;;;;;;3.90;96.10;;;;;;5008534;28;19925;-73
2021/12/12 03:00:17;;;;;;;;;;;3.90;96.10;;;;;;5005231;28;19937;-73
2021/12/12 03:02:46;;;;;;;;;;;3.90;96.10;;;;;;5007810;28;20618;-74
2021/12/12 03:05:13;;;;;;;;;;;3.90;96.10;;;;;;5008079;28;19991;-74
2021/12/12 03:07:40;;;;;;;;;;;3.80;96.10;;;;;;5009873;28;20019;-73
2021/12/12 03:10:09;;;;;;;;;;;3.90;96.20;;;;;;5005286;28;19925;-74
2021/12/12 03:12:36;;;;;;;;;;;3.90;96.20;;;;;;5003663;28;19932;-73
2021/12/12 03:15:07;;;;;;;;;;;3.80;96.20;;;;;;5005106;28;19930;-72
2021/12/12 03:17:34;;;;;;;;;;;3.80;96.20;;;;;;5009053;28;19929;-73
2021/12/12 03:20:05;;;;;;;;;;;3.90;96.20;;;;;;5005639;28;19929;-73
2021/12/12 03:22:31;;;;;;;;;;;3.80;96.50;;;;;;5007881;28;19952;-73
2021/12/12 03:24:58;;;;;;;;;;;3.90;96.20;;;;;;5007596;28;19932;-72
2021/12/12 03:27:25;;;;;;;;;;;3.80;96.20;;;;;;5006091;28;19929;-73
2021/12/12 03:29:52;;;;;;;;;;;3.80;96.20;;;;;;5005920;28;19971;-73
2021/12/12 03:32:22;;;;;;;;;;;3.80;96.30;;;;;;5005275;28;19929;-73
2021/12/12 03:34:51;;;;;;;;;;;3.80;96.30;;;;;;5006344;28;19925;-73
2021/12/12 03:37:19;;;;;;;;;;;3.80;96.30;;;;;;5006472;28;19929;-73
2021/12/12 03:39:46;;;;;;;;;;;3.80;96.30;;;;;;5006927;28;19936;-73
2021/12/12 03:42:14;;;;;;;;;;;3.80;96.30;;;;;;5004591;28;19929;-74
2021/12/12 03:44:42;;;;;;;;;;;3.80;96.30;;;;;;5005113;28;19968;-72
2021/12/12 03:47:19;;;;;;;;;;;3.80;96.30;;;;;;5003287;28;19944;-74
2021/12/12 03:49:48;;;;;;;;;;;3.80;96.30;;;;;;5002784;28;19980;-73
2021/12/12 03:52:16;;;;;;;;;;;3.80;96.40;;;;;;5006657;28;19925;-72
2021/12/12 03:54:43;;;;;;;;;;;3.80;96.70;;;;;;5002717;28;19926;-74
2021/12/12 03:57:10;;;;;;;;;;;3.80;96.40;;;;;;5007201;28;19925;-73
2021/12/12 03:59:37;;;;;;;;;;;3.80;96.40;;;;;;5003601;28;19929;-74
2021/12/12 04:02:04;;;;;;;;;;;3.70;96.40;;;;;;5004184;28;20341;-73
2021/12/12 04:04:33;;;;;;;;;;;3.80;96.40;;;;;;5007020;28;19933;-74
2021/12/12 04:07:03;;;;;;;;;;;3.70;96.40;;;;;;5007166;28;19925;-73
2021/12/12 04:09:29;;;;;;;;;;;3.70;96.40;;;;;;5003682;28;19925;-74
2021/12/12 04:11:58;;;;;;;;;;;3.70;96.40;;;;;;4998094;28;19937;-73
2021/12/12 04:14:24;;;;;;;;;;;3.70;96.40;;;;;;5006433;28;19971;-73
2021/12/12 04:16:52;;;;;;;;;;;3.70;96.50;;;;;;5005133;28;20389;-72
2021/12/12 04:19:19;;;;;;;;;;;3.60;96.40;;;;;;5006276;28;19976;-74
2021/12/12 04:21:46;;;;;;;;;;;3.70;96.50;;;;;;5007117;28;19929;-73
2021/12/12 04:24:19;;;;;;;;;;;3.60;96.50;;;;;;5006243;28;19941;-73
2021/12/12 04:26:45;;;;;;;;;;;3.60;96.50;;;;;;5004170;28;19932;-74
2021/12/12 04:29:13;;;;;;;;;;;3.60;96.50;;;;;;5006130;28;20086;-73
2021/12/12 04:31:41;;;;;;;;;;;3.60;96.50;;;;;;5003532;28;19936;-73
2021/12/12 04:34:09;;;;;;;;;;;3.60;96.50;;;;;;5006816;28;19936;-72
2021/12/12 04:36:38;;;;;;;;;;;3.50;96.50;;;;;;5006538;28;19925;-73
2021/12/12 04:39:06;;;;;;;;;;;3.50;96.50;;;;;;4999697;28;20341;-73
2021/12/12 04:41:34;;;;;;;;;;;3.50;96.50;;;;;;5005996;28;19933;-73
2021/12/12 04:44:01;;;;;;;;;;;3.50;96.50;;;;;;5006390;28;19948;-72
2021/12/12 04:49:54;;;;;;;;;;;3.50;96.50;;;;;;5004488;28;19929;-73
2021/12/12 04:52:03;;;;;;;;;;;3.40;96.50;;;;;;5001153;28;20023;-73
2021/12/12 04:54:33;;;;;;;;;;;3.40;96.50;;;;;;5002504;28;19929;-73
2021/12/12 04:57:02;;;;;;;;;;;3.40;96.60;;;;;;5004696;28;19921;-72
2021/12/12 04:59:32;;;;;;;;;;;3.40;96.50;;;;;;5006039;28;19943;-74
2021/12/12 05:02:02;;;;;;;;;;;3.30;96.50;;;;;;5002496;28;19928;-72
2021/12/12 05:04:31;;;;;;;;;;;3.30;96.50;;;;;;5006477;28;19921;-73
2021/12/12 05:06:59;;;;;;;;;;;3.40;96.60;;;;;;5005853;28;19921;-73
2021/12/12 05:09:28;;;;;;;;;;;3.30;96.60;;;;;;5005033;28;20745;-74
2021/12/12 05:11:57;;;;;;;;;;;3.30;96.60;;;;;;5000617;28;19961;-73
2021/12/12 05:14:27;;;;;;;;;;;3.30;96.60;;;;;;5005088;28;20429;-74
2021/12/12 05:16:58;;;;;;;;;;;3.30;96.60;;;;;;5005212;28;19928;-72
2021/12/12 05:19:27;;;;;;;;;;;3.30;96.60;;;;;;5006436;28;19929;-73
2021/12/12 05:21:55;;;;;;;;;;;3.30;96.60;;;;;;5005322;28;20552;-73
2021/12/12 05:24:23;;;;;;;;;;;3.20;96.60;;;;;;5006193;28;19983;-72
2021/12/12 05:26:52;;;;;;;;;;;3.20;96.60;;;;;;5004324;28;19921;-73
2021/12/12 05:29:21;;;;;;;;;;;3.20;96.60;;;;;;5004994;28;19921;-73
2021/12/12 05:31:50;;;;;;;;;;;3.20;96.60;;;;;;5002893;28;19930;-73
2021/12/12 05:34:18;;;;;;;;;;;3.20;96.60;;;;;;5005057;28;19933;-73
2021/12/12 05:36:45;;;;;;;;;;;3.10;96.60;;;;;;5002365;28;20472;-73
2021/12/12 05:39:11;;;;;;;;;;;3.10;96.60;;;;;;5001892;28;19929;-73
2021/12/12 05:41:38;;;;;;;;;;;3.10;96.60;;;;;;5003279;28;19921;-73
2021/12/12 05:44:06;;;;;;;;;;;3.10;96.60;;;;;;5004693;28;19933;-73
2021/12/12 05:46:32;;;;;;;;;;;3.10;96.70;;;;;;5001052;28;20369;-73
2021/12/12 05:49:04;;;;;;;;;;;3.00;96.60;;;;;;5003393;28;19928;-72
2021/12/12 05:51:31;;;;;;;;;;;3.00;96.60;;;;;;5001777;28;20036;-73
2021/12/12 05:53:58;;;;;;;;;;;3.00;96.60;;;;;;4999937;28;19929;-73
2021/12/12 05:56:25;;;;;;;;;;;3.00;96.60;;;;;;5004590;28;20210;-73
2021/12/12 05:58:52;;;;;;;;;;;3.00;96.60;;;;;;5003381;28;19987;-73
2021/12/12 06:01:20;;;;;;;;;;;3.00;96.60;;;;;;4999361;28;19925;-73
2021/12/12 06:03:47;;;;;;;;;;;2.90;96.50;;;;;;5003870;28;19925;-73
2021/12/12 06:06:16;;;;;;;;;;;3.00;96.60;;;;;;5003382;28;19928;-73
2021/12/12 06:08:44;;;;;;;;;;;2.90;96.50;;;;;;5003099;28;19925;-73
2021/12/12 06:11:11;;;;;;;;;;;2.90;96.50;;;;;;5002264;28;19929;-73
2021/12/12 06:13:38;;;;;;;;;;;2.90;96.50;;;;;;5005176;28;19925;-73
2021/12/12 06:16:05;;;;;;;;;;;2.80;96.40;;;;;;5004982;28;19921;-73
2021/12/12 06:18:33;;;;;;;;;;;2.80;96.40;;;;;;5013388;28;19929;-73
2021/12/12 06:20:59;;;;;;;;;;;2.80;96.40;;;;;;5004402;28;19929;-72
2021/12/12 06:23:28;;;;;;;;;;;2.80;96.30;;;;;;5008508;28;19926;-73
2021/12/12 06:25:55;;;;;;;;;;;2.80;96.40;;;;;;5003918;28;20456;-72
2021/12/12 06:28:23;;;;;;;;;;;2.80;96.40;;;;;;5008068;28;19929;-73
2021/12/12 06:30:50;;;;;;;;;;;2.80;96.40;;;;;;5001288;28;19933;-73
2021/12/12 06:33:16;;;;;;;;;;;2.80;96.40;;;;;;5004336;28;19921;-73
2021/12/12 06:35:43;;;;;;;;;;;2.70;96.40;;;;;;5004873;28;19921;-74
2021/12/12 06:38:11;;;;;;;;;;;2.70;96.40;;;;;;5003536;28;19925;-73
2021/12/12 06:40:41;;;;;;;;;;;2.70;96.40;;;;;;5002122;28;20296;-73
2021/12/12 06:43:09;;;;;;;;;;;2.70;96.40;;;;;;5001958;28;19928;-73
2021/12/12 06:45:36;;;;;;;;;;;2.70;96.40;;;;;;5002540;28;19925;-73
2021/12/12 06:48:04;;;;;;;;;;;2.70;96.50;;;;;;5005812;28;19917;-73
2021/12/12 06:50:31;;;;;;;;;;;2.70;96.50;;;;;;5004610;28;19975;-74
2021/12/12 06:52:58;;;;;;;;;;;2.70;96.50;;;;;;4996783;28;19933;-73
2021/12/12 06:55:25;;;;;;;;;;;2.70;96.50;;;;;;5002134;28;19917;-73
2021/12/12 06:57:53;;;;;;;;;;;2.70;96.50;;;;;;5007209;28;20010;-73
2021/12/12 07:00:21;;;;;;;;;;;2.70;96.50;;;;;;5007559;28;19928;-73
2021/12/12 07:02:47;;;;;;;;;;;2.70;96.50;;;;;;4997483;28;20279;-73
2021/12/12 07:05:16;;;;;;;;;;;2.70;96.50;;;;;;5005371;28;20390;-74
2021/12/12 07:07:42;;;;;;;;;;;2.70;96.50;;;;;;5005088;28;19956;-73
2021/12/12 07:10:10;;;;;;;;;;;2.60;96.50;;;;;;5000161;28;19925;-74
2021/12/12 07:12:39;;;;;;;;;;;2.60;96.50;;;;;;4995035;28;19937;-73
2021/12/12 07:15:08;;;;;;;;;;;2.60;96.50;;;;;;4995509;28;21227;-73
2021/12/12 07:17:35;;;;;;;;;;;2.60;96.50;;;;;;5005643;28;19925;-72
2021/12/12 07:20:02;;;;;;;;;;;2.60;96.50;;;;;;5007682;28;19932;-73
2021/12/12 07:22:28;;;;;;;;;;;2.60;96.50;;;;;;5005573;28;19921;-73
2021/12/12 07:24:55;;;;;;;;;;;2.60;96.50;;;;;;5006184;28;19925;-74
2021/12/12 07:27:22;;;;;;;;;;;2.60;96.60;;;;;;5007239;28;19979;-73
2021/12/12 07:29:48;;;;;;;;;;;2.60;96.60;;;;;;5008296;28;19933;-73
2021/12/12 07:32:16;;;;;;;;;;;2.60;96.90;;;;;;5006595;28;19929;-73
2021/12/12 07:34:43;;;;;;;;;;;2.60;96.60;;;;;;5008555;28;20031;-72
2021/12/12 07:37:10;;;;;;;;;;;2.60;96.60;;;;;;5004820;28;19979;-74
2021/12/12 07:39:38;;;;;;;;;;;2.60;96.60;;;;;;5009219;28;19929;-73
2021/12/12 07:42:05;;;;;;;;;;;2.50;96.60;;;;;;5007683;28;19932;-73
2021/12/12 07:44:34;;;;;;;;;;;2.60;96.60;;;;;;5008665;28;19932;-74
2021/12/12 07:47:01;;;;;;;;;;;2.50;96.60;;;;;;5002637;28;20021;-73
2021/12/12 07:49:31;;;;;;;;;;;2.60;96.60;;;;;;5008688;28;19929;-74
2021/12/12 07:51:59;;;;;;;;;;;2.50;96.60;;;;;;5008459;28;19927;-73
2021/12/12 07:54:25;;;;;;;;;;;2.60;96.60;;;;;;5005258;28;19929;-73
2021/12/12 07:56:52;;;;;;;;;;;2.50;96.60;;;;;;5007099;28;19929;-74
2021/12/12 07:59:19;;;;;;;;;;;2.60;96.60;;;;;;5010524;28;19948;-73
2021/12/12 08:01:47;;;;;;;;;;;2.50;96.60;;;;;;4999016;28;19932;-74
2021/12/12 08:04:15;;;;;;;;;;;2.60;96.60;;;;;;4996978;28;19991;-74
2021/12/12 08:06:43;;;;;;;;;;;2.60;96.70;;;;;;4998755;28;19932;-74
2021/12/12 08:09:10;;;;;;;;;;;2.60;96.70;;;;;;4997654;28;19926;-73
2021/12/12 08:11:38;;;;;;;;;;;2.60;96.60;;;;;;5000542;28;19940;-74
2021/12/12 08:14:07;;;;;;;;;;;2.60;96.60;;;;;;5004958;28;20655;-73
2021/12/12 08:16:33;;;;;;;;;;;2.50;96.60;;;;;;5003929;28;20764;-73
2021/12/12 08:19:00;;;;;;;;;;;2.60;96.60;;;;;;5007042;28;19936;-73
2021/12/12 08:21:33;;;;;;;;;;;2.60;96.60;;;;;;5005753;28;19931;-74
2021/12/12 08:24:03;;;;;;;;;;;2.60;96.60;;;;;;5001676;28;20517;-75
2021/12/12 08:26:29;;;;;;;;;;;2.60;96.60;;;;;;5004830;28;19952;-74
2021/12/12 08:28:56;;;;;;;;;;;2.60;96.60;;;;;;5005437;28;19933;-76
2021/12/12 08:31:23;;;;;;;;;;;2.60;96.60;;;;;;4996195;28;20027;-74
2021/12/12 08:33:49;;;;;;;;;;;2.60;96.60;;;;;;5004083;28;19921;-76
2021/12/12 08:36:16;;;;;;;;;;;2.60;96.50;;;;;;5005236;28;19925;-75
2021/12/12 08:38:43;;;;;;;;;;;2.60;96.50;;;;;;5005670;28;20017;-74
2021/12/12 08:41:11;;;;;;;;;;;2.70;96.50;;;;;;5003472;28;19925;-75
2021/12/12 08:43:39;;;;;;;;;;;2.60;96.50;;;;;;5003725;28;19933;-74
2021/12/12 08:46:07;;;;;;;;;;;2.70;96.50;;;;;;4996020;28;19922;-74
2021/12/12 08:48:35;;;;;;;;;;;2.70;96.50;;;;;;4998570;28;19937;-73
2021/12/12 08:51:03;;;;;;;;;;;2.60;96.50;;;;;;4998793;28;19926;-73
2021/12/12 08:53:30;;;;;;;;;;;2.70;96.50;;;;;;4998938;28;20381;-74
2021/12/12 08:55:58;;;;;;;;;;;2.70;96.50;;;;;;4998863;28;19930;-74
2021/12/12 08:58:26;;;;;;;;;;;2.70;96.50;;;;;;5001457;28;19933;-73
2021/12/12 09:00:54;;;;;;;;;;;2.70;96.50;;;;;;5001828;28;19936;-74
2021/12/12 09:03:22;;;;;;;;;;;2.70;96.40;;;;;;5000909;28;19929;-75
2021/12/12 09:05:49;;;;;;;;;;;2.70;96.40;;;;;;5005893;28;20274;-75
2021/12/12 09:08:18;;;;;;;;;;;2.70;96.40;;;;;;5005092;28;19926;-74
2021/12/12 09:10:47;;;;;;;;;;;2.70;96.40;;;;;;5005212;28;19925;-74
2021/12/12 09:13:16;;;;;;;;;;;2.80;96.40;;;;;;5002011;28;19925;-75
2021/12/12 09:15:46;;;;;;;;;;;2.80;96.40;;;;;;5000949;28;19933;-74
2021/12/12 09:18:13;;;;;;;;;;;2.80;96.40;;;;;;5000010;28;19930;-74
2021/12/12 09:20:48;;;;;;;;;;;2.80;96.30;;;;;;5004338;28;20016;-74
2021/12/12 09:23:17;;;;;;;;;;;2.80;96.30;;;;;;5003232;28;20355;-75
2021/12/12 09:25:50;;;;;;;;;;;2.80;96.30;;;;;;5004929;28;20707;-74
2021/12/12 09:28:22;;;;;;;;;;;2.90;96.30;;;;;;5003484;28;19925;-75
2021/12/12 09:30:50;;;;;;;;;;;2.90;96.30;;;;;;5005323;28;19952;-74
2021/12/12 09:33:20;;;;;;;;;;;2.90;96.30;;;;;;5002275;28;19921;-75
2021/12/12 09:35:49;;;;;;;;;;;2.90;96.20;;;;;;5004745;28;19926;-75
2021/12/12 09:38:17;;;;;;;;;;;2.90;96.20;;;;;;5002247;28;19926;-74
2021/12/12 09:40:53;;;;;;;;;;;2.90;96.20;;;;;;5005884;28;20514;-74
2021/12/12 09:43:26;;;;;;;;;;;2.90;96.20;;;;;;5005968;28;20577;-75
2021/12/12 09:46:07;;;;;;;;;;;2.90;96.20;;;;;;5002294;28;20443;-74
2021/12/12 09:51:43;;;;;;;;;;;3.00;96.10;;;;;;5003002;28;20022;-73
2021/12/12 09:54:26;;;;;;;;;;;3.00;96.10;;;;;;5000933;28;19937;-76
2021/12/12 09:56:56;;;;;;;;;;;3.00;96.10;;;;;;5002646;28;19929;-74
2021/12/12 09:59:27;;;;;;;;;;;3.00;96.00;;;;;;5004304;28;19972;-74
2021/12/12 10:02:04;;;;;;;;;;;3.00;96.00;;;;;;5002781;28;19936;-74
2021/12/12 10:04:39;;;;;;;;;;;3.00;95.90;;;;;;5000571;28;19933;-73
2021/12/12 10:07:10;;;;;;;;;;;3.10;96.00;;;;;;5003768;28;20402;-74
2021/12/12 10:09:39;;;;;;;;;;;3.10;96.00;;;;;;5005518;28;19956;-74
2021/12/12 10:12:07;;;;;;;;;;;3.10;95.90;;;;;;5004883;28;19921;-73
2021/12/12 10:14:38;;;;;;;;;;;3.10;95.90;;;;;;5002201;28;19940;-74
2021/12/12 10:17:09;;;;;;;;;;;3.10;95.90;;;;;;5002200;28;19944;-72
2021/12/12 10:19:40;;;;;;;;;;;3.20;95.90;;;;;;5005248;28;19932;-74
2021/12/12 10:22:13;;;;;;;;;;;3.20;95.90;;;;;;5002921;28;19932;-73
2021/12/12 10:24:41;;;;;;;;;;;3.20;95.80;;;;;;5006341;28;19999;-73
2021/12/12 10:27:10;;;;;;;;;;;3.20;95.80;;;;;;5006727;28;19922;-72
2021/12/12 10:29:41;;;;;;;;;;;3.20;95.80;;;;;;5000775;28;20603;-73
2021/12/12 10:32:11;;;;;;;;;;;3.20;95.80;;;;;;5002391;28;19929;-73
2021/12/12 10:34:43;;;;;;;;;;;3.30;95.80;;;;;;5004415;28;19976;-74
2021/12/12 10:37:14;;;;;;;;;;;3.30;95.80;;;;;;5004800;28;20295;-73
2021/12/12 10:39:42;;;;;;;;;;;3.30;95.80;;;;;;5003288;28;20448;-73
2021/12/12 10:42:10;;;;;;;;;;;3.30;95.80;;;;;;5003497;28;19930;-74
2021/12/12 10:44:39;;;;;;;;;;;3.40;95.70;;;;;;5005229;28;19932;-74
2021/12/12 10:47:09;;;;;;;;;;;3.40;95.70;;;;;;5000623;28;19933;-73
2021/12/12 10:49:39;;;;;;;;;;;3.40;95.70;;;;;;5000743;28;19926;-73
2021/12/12 10:52:06;;;;;;;;;;;3.40;95.70;;;;;;5002164;28;19925;-73
2021/12/12 10:54:36;;;;;;;;;;;3.40;95.60;;;;;;5004462;28;19979;-73
2021/12/12 10:57:04;;;;;;;;;;;3.50;95.70;;;;;;5007557;28;20013;-73
2021/12/12 10:59:31;;;;;;;;;;;3.50;95.70;;;;;;5011178;28;19932;-74
2021/12/12 11:02:00;;;;;;;;;;;3.50;95.70;;;;;;5005828;28;19928;-72
2021/12/12 11:04:34;;;;;;;;;;;3.50;95.70;;;;;;5010313;28;19929;-74
2021/12/12 11:07:03;;;;;;;;;;;3.50;95.70;;;;;;5007117;28;19925;-74
2021/12/12 11:09:31;;;;;;;;;;;3.50;95.70;;;;;;5006948;28;19932;-73
2021/12/12 11:12:02;;;;;;;;;;;3.60;95.70;;;;;;5004715;28;19940;-73
2021/12/12 11:14:30;;;;;;;;;;;3.60;95.70;;;;;;5002677;28;19964;-74
2021/12/12 11:16:59;;;;;;;;;;;3.60;95.70;;;;;;5006117;28;19925;-73
2021/12/12 11:19:29;;;;;;;;;;;3.60;95.70;;;;;;5002891;28;19940;-73
2021/12/12 11:21:58;;;;;;;;;;;3.70;95.70;;;;;;5008736;28;19933;-73
2021/12/12 11:24:28;;;;;;;;;;;3.70;95.70;;;;;;5007715;28;20571;-73
2021/12/12 11:26:57;;;;;;;;;;;3.70;95.60;;;;;;5008700;28;19956;-74
2021/12/12 11:29:25;;;;;;;;;;;3.70;95.60;;;;;;5005760;28;19944;-74
2021/12/12 11:31:55;;;;;;;;;;;3.70;95.50;;;;;;5004874;28;19926;-73
2021/12/12 11:34:22;;;;;;;;;;;3.80;95.50;;;;;;5007242;28;19926;-72
2021/12/12 11:36:51;;;;;;;;;;;3.80;95.40;;;;;;4998737;28;19929;-71
2021/12/12 11:39:21;;;;;;;;;;;3.80;95.40;;;;;;5001685;28;20004;-74
2021/12/12 11:41:58;;;;;;;;;;;3.90;95.50;;;;;;5005032;28;19929;-71
2021/12/12 11:44:28;;;;;;;;;;;3.90;95.40;;;;;;5004132;28;20460;-71
2021/12/12 11:47:00;;;;;;;;;;;3.90;95.40;;;;;;5004677;28;19963;-71
2021/12/12 11:49:30;;;;;;;;;;;3.90;95.50;;;;;;5003675;28;19940;-72
2021/12/12 11:51:59;;;;;;;;;;;3.90;95.70;;;;;;5003311;28;20340;-71
2021/12/12 11:54:33;;;;;;;;;;;3.90;95.40;;;;;;5002188;28;19933;-71
2021/12/12 11:57:04;;;;;;;;;;;4.00;95.40;;;;;;5006571;28;20401;-72
2021/12/12 11:59:32;;;;;;;;;;;4.00;95.30;;;;;;5004555;28;19932;-72
2021/12/12 12:02:02;;;;;;;;;;;4.00;95.40;;;;;;5003570;28;19932;-71
2021/12/12 12:04:54;;;;;;;;;;;4.00;95.40;;;;;;5006283;28;19926;-74
2021/12/12 12:07:32;;;;;;;;;;;4.10;95.50;;;;;;5003862;28;19925;-73
2021/12/12 12:10:04;;;;;;;;;;;4.10;95.40;;;;;;5000675;28;19991;-71
2021/12/12 12:12:50;;;;;;;;;;;4.10;95.40;;;;;;5001595;28;19962;-70
2021/12/12 12:15:20;;;;;;;;;;;4.20;95.30;;;;;;5004440;28;19925;-73
2021/12/12 12:17:58;;;;;;;;;;;4.20;95.10;;;;;;5001662;28;19933;-72
2021/12/12 12:20:29;;;;;;;;;;;4.20;95.20;;;;;;5007207;28;19925;-71
2021/12/12 12:22:59;;;;;;;;;;;4.20;95.20;;;;;;5003349;28;19925;-72
2021/12/12 12:26:50;;;;;;;;;;;4.30;95.20;;;;;;4999309;28;20656;-71
2021/12/12 12:28:26;;;;;;;;;;;4.30;95.30;;;;;;5004246;28;19995;-72
2021/12/12 12:31:11;;;;;;;;;;;4.30;95.30;;;;;;5004611;28;20696;-72
2021/12/12 12:33:58;;;;;;;;;;;4.30;95.30;;;;;;5005047;28;19925;-71
2021/12/12 12:36:43;;;;;;;;;;;4.30;95.30;;;;;;4996344;28;19952;-72
2021/12/12 12:39:28;;;;;;;;;;;4.40;95.30;;;;;;4999845;28;19975;-72
2021/12/12 12:42:14;;;;;;;;;;;4.40;95.40;;;;;;5003519;28;19925;-72
2021/12/12 12:45:10;;;;;;;;;;;4.40;95.30;;;;;;5004661;28;20377;-72
2021/12/12 12:47:55;;;;;;;;;;;4.50;95.20;;;;;;4922685;29;19966;-72
2021/12/12 12:50:38;;;;;;;;;;;4.50;95.20;;;;;;4993760;28;19925;-72
2021/12/12 12:53:26;;;;;;;;;;;4.50;94.90;;;;;;5003427;28;19944;-73
2021/12/12 12:56:10;;;;;;;;;;;4.60;94.90;;;;;;5005476;28;19979;-72
2021/12/12 12:58:52;;;;;;;;;;;4.50;94.90;;;;;;5001285;28;19933;-72
2021/12/12 13:01:26;;;;;;;3.28;2.97;;;4.60;94.80;;;;;;5007841;28;20453;-73
2021/12/12 13:04:11;;;;;;;2.70;2.50;;;4.60;95.00;;;;;;5005642;28;20100;-72
2021/12/12 13:07:14;;;;;;;2.97;2.67;;;4.70;94.90;;;;;;5002016;28;20037;-72
2021/12/12 13:09:57;;;;;;;3.05;2.55;;;4.70;94.90;;;;;;5004333;28;20058;-72
2021/12/12 13:13:02;;;;;;;3.42;2.72;;;4.70;94.90;;;;;;4999329;28;20050;-72
2021/12/12 13:15:37;;;;;;;4.75;3.00;;;4.70;94.80;;;;;;5002307;28;20061;-73
2021/12/12 13:18:17;;;;;;;3.22;2.80;;;4.70;94.90;;;;;;5002381;28;20407;-72
2021/12/12 13:20:56;;;;;;;3.13;2.47;;;4.70;94.80;;;;;;5004747;28;20137;-72
2021/12/12 13:23:42;;;;;;;3.05;2.75;;;4.80;94.80;;;;;;5004819;28;20145;-72
2021/12/12 13:26:13;;;;;;;3.55;3.17;;;4.80;94.70;;;;;;5002695;28;20054;-72
2021/12/12 13:28:52;;;;;;;3.25;2.80;;;4.80;94.80;;;;;;4999353;28;20149;-72
2021/12/12 13:31:27;;;;;;;2.75;2.50;;;4.80;94.80;;;;;;4995030;28;20156;-72
2021/12/12 13:34:01;;;;;;;2.83;2.60;;;4.80;94.80;;;;;;5004486;28;20050;-72
2021/12/12 13:36:44;;;;;;;3.13;2.83;;;4.80;94.70;;;;;;5001117;28;20054;-72
2021/12/12 13:39:20;;;;;;;3.47;2.72;;;4.80;94.70;;;;;;5000444;28;20057;-72
2021/12/12 13:41:59;;;;;;;2.92;2.67;;;4.80;94.70;;;;;;5003262;28;20054;-72
2021/12/12 13:44:54;;;;;;;2.90;2.70;;;4.80;94.70;;;;;;5004690;28;20057;-72
2021/12/12 13:47:32;;;;;;;4.65;2.83;;;4.90;94.50;;;;;;5003230;28;20045;-74
2021/12/12 13:50:04;;;;;;;2.67;2.47;;;4.90;94.60;;;;;;5004501;28;20054;-73
2021/12/12 13:52:39;;;;;;;2.83;2.63;;;4.90;94.60;;;;;;4998781;28;20600;-74
2021/12/12 13:55:12;;;;;;;2.85;2.65;;;4.90;94.60;;;;;;5000696;28;20061;-74
2021/12/12 13:57:49;;;;;;;3.08;2.80;;;4.90;94.60;;;;;;4998049;28;20053;-74
2021/12/12 14:00:19;;;;;;;2.80;2.60;;;4.90;94.50;;;;;;4992629;28;20096;-75
2021/12/12 14:02:50;;;;;;;3.13;2.63;;;4.90;94.50;;;;;;4992078;28;20050;-74
2021/12/12 14:05:22;;;;;;;3.92;2.70;;;4.90;94.50;;;;;;4993418;28;20056;-74
2021/12/12 14:07:52;;;;;;;3.10;2.85;;;4.90;94.50;;;;;;4990118;28;20050;-74
2021/12/12 14:10:37;;;;;;;2.85;2.58;;;4.90;94.30;;;;;;4992825;28;20057;-74
2021/12/12 14:13:07;;;;;;;3.38;2.72;;;4.90;94.30;;;;;;5005007;28;20419;-73
2021/12/12 14:15:36;;;;;;;2.70;2.50;;;4.90;94.40;;;;;;5001096;28;20057;-73
2021/12/12 14:18:07;;;;;;;2.83;2.63;;;4.90;94.40;;;;;;5004769;28;20411;-74
2021/12/12 14:20:38;;;;;;;2.80;2.53;;;5.00;94.50;;;;;;5001942;28;20057;-74
2021/12/12 14:23:09;;;;;;;3.00;2.45;;;5.00;94.50;;;;;;4996946;28;20050;-73
2021/12/12 14:25:38;;;;;;;2.80;2.60;;;5.00;94.50;;;;;;4995918;28;20061;-74
2021/12/12 14:28:07;;;;;;;2.70;2.50;;;5.00;94.50;;;;;;5002085;28;20050;-72
2021/12/12 14:30:38;;;;;;;2.80;2.60;;;5.00;94.40;;;;;;5000783;28;20432;-72
2021/12/12 14:33:10;;;;;;;3.00;2.70;;;5.00;94.30;;;;;;4998490;28;20386;-74
2021/12/12 14:35:39;;;;;;;2.90;2.70;;;5.00;94.20;;;;;;4998043;28;21084;-73
2021/12/12 14:38:06;;;;;;;3.03;2.58;;;5.00;94.30;;;;;;4997987;28;20045;-73
2021/12/12 14:40:36;;;;;;;2.67;2.47;;;5.00;94.20;;;;;;4994436;28;20105;-72
2021/12/12 14:43:07;;;;;;;2.63;2.42;;;5.00;94.20;;;;;;5002602;28;20049;-75
2021/12/12 14:45:41;;;;;;;2.78;2.55;;;5.10;94.20;;;;;;5002351;28;20054;-72
2021/12/12 14:48:10;;;;;;;4.15;2.80;;;5.10;94.30;;;;;;5003296;28;20045;-73
2021/12/12 14:50:45;;;;;;;2.90;2.60;;;5.10;94.30;;;;;;5002891;28;20058;-73